createdAt,value
2023-03-06T00:00:51.364Z,72.51
2023-03-06T00:03:19.194Z,72.90
2023-03-06T00:05:47.057Z,72.04
2023-03-06T00:08:15.245Z,70.87
2023-03-06T00:10:42.999Z,72.19
2023-03-06T00:13:13.805Z,72.31
2023-03-06T00:15:43.520Z,72.73
2023-03-06T00:18:11.334Z,71.72
2023-03-06T00:20:41.398Z,72.06
2023-03-06T00:23:09.411Z,72.21
2023-03-06T00:25:38.724Z,70.90
2023-03-06T00:28:07.018Z,70.77
2023-03-06T00:30:34.920Z,70.06
2023-03-06T00:33:03.980Z,69.77
2023-03-06T00:35:31.883Z,70.88
2023-03-06T00:38:00.159Z,69.84
2023-03-06T00:40:28.318Z,68.86
2023-03-06T00:42:56.088Z,69.23
2023-03-06T00:45:23.902Z,67.94
2023-03-06T00:47:51.814Z,68.16
2023-03-06T00:50:21.296Z,68.64
2023-03-06T00:52:49.161Z,67.96
2023-03-06T00:55:17.145Z,67.85
2023-03-06T00:57:44.899Z,67.85
2023-03-06T01:00:14.923Z,69.04
2023-03-06T01:02:42.657Z,68.46
2023-03-06T01:05:10.675Z,68.44
2023-03-06T01:07:39.778Z,69.19
2023-03-06T01:10:09.478Z,69.49
2023-03-06T01:12:37.539Z,69.56
2023-03-06T01:15:06.517Z,69.84
2023-03-06T01:17:34.224Z,70.05
2023-03-06T01:20:01.984Z,70.35
2023-03-06T01:22:29.868Z,71.47
2023-03-06T01:24:58.959Z,71.26
2023-03-06T01:27:26.808Z,72.03
2023-03-06T01:29:54.601Z,71.15
2023-03-06T01:32:22.528Z,72.09
2023-03-06T01:34:50.339Z,72.16
2023-03-06T01:37:18.138Z,71.97
2023-03-06T01:39:45.888Z,72.52
2023-03-06T01:42:14.970Z,71.71
2023-03-06T01:44:58.971Z,71.03
2023-03-06T01:47:26.856Z,70.95
2023-03-06T01:49:54.786Z,70.65
2023-03-06T01:52:26.706Z,70.82
2023-03-06T01:54:59.184Z,71.57
2023-03-06T01:57:31.975Z,71.11
2023-03-06T02:00:05.621Z,70.92
2023-03-06T02:02:33.605Z,71.10
2023-03-06T02:05:03.221Z,71.15
2023-03-06T02:07:31.764Z,70.72
2023-03-06T02:09:59.932Z,71.08
2023-03-06T02:12:29.438Z,70.65
2023-03-06T02:14:58.266Z,71.62
2023-03-06T02:17:26.678Z,72.74
2023-03-06T02:20:01.106Z,73.88
2023-03-06T02:22:37.288Z,73.62
2023-03-06T02:25:10.614Z,73.17
2023-03-06T02:27:40.055Z,72.62
2023-03-06T02:30:09.822Z,73.50
2023-03-06T02:32:37.668Z,73.07
2023-03-06T02:35:07.200Z,72.92
2023-03-06T02:37:35.066Z,72.27
2023-03-06T02:40:10.318Z,73.33
2023-03-06T02:42:39.520Z,73.91
2023-03-06T02:45:11.762Z,76.42
2023-03-06T02:47:39.614Z,75.76
2023-03-06T02:50:07.800Z,76.35
2023-03-06T02:52:35.503Z,76.24
2023-03-06T02:55:03.475Z,78.71
2023-03-06T02:57:31.224Z,79.46
2023-03-06T03:00:00.696Z,80.30
2023-03-06T03:02:28.683Z,79.42
2023-03-06T03:04:56.517Z,81.51
2023-03-06T03:07:24.311Z,81.33
2023-03-06T03:09:52.029Z,80.85
2023-03-06T03:12:19.743Z,79.78
2023-03-06T03:14:47.508Z,82.42
2023-03-06T03:17:17.188Z,80.90
2023-03-06T03:19:44.987Z,80.93
2023-03-06T03:22:12.711Z,81.86
2023-03-06T03:24:42.042Z,82.71
2023-03-06T03:27:09.978Z,83.86
2023-03-06T03:29:38.019Z,82.96
2023-03-06T03:32:06.564Z,82.73
2023-03-06T03:34:35.794Z,85.12
2023-03-06T03:37:03.594Z,83.99
2023-03-06T03:39:31.352Z,83.50
2023-03-06T03:41:59.200Z,83.00
2023-03-06T03:44:27.100Z,82.69
2023-03-06T03:46:54.835Z,83.14
2023-03-06T03:49:22.619Z,83.09
2023-03-06T03:51:52.702Z,83.30
2023-03-06T03:54:20.392Z,83.74
2023-03-06T03:56:48.105Z,82.44
2023-03-06T03:59:15.889Z,83.76
2023-03-06T04:01:44.606Z,82.71
2023-03-06T04:04:13.750Z,83.24
2023-03-06T04:06:41.559Z,82.85
2023-03-06T04:09:11.055Z,81.59
2023-03-06T04:11:38.841Z,82.31
2023-03-06T04:14:08.261Z,82.56
2023-03-06T04:16:36.080Z,81.96
2023-03-06T04:19:03.914Z,80.88
2023-03-06T04:21:31.697Z,79.93
2023-03-06T04:23:59.544Z,80.80
2023-03-06T04:26:28.821Z,79.67
2023-03-06T04:28:56.558Z,81.12
2023-03-06T04:31:24.379Z,82.02
2023-03-06T04:33:52.147Z,82.14
2023-03-06T04:36:27.916Z,82.40
2023-03-06T04:38:55.765Z,84.48
2023-03-06T04:41:23.679Z,83.54
2023-03-06T04:43:53.562Z,82.43
2023-03-06T04:46:21.333Z,82.42
2023-03-06T04:48:49.180Z,82.51
2023-03-06T04:51:17.011Z,81.17
2023-03-06T04:53:44.824Z,82.02
2023-03-06T04:56:12.554Z,81.29
2023-03-06T04:58:40.285Z,81.37
2023-03-06T05:01:09.555Z,82.37
2023-03-06T05:03:37.417Z,83.03
2023-03-06T05:06:05.567Z,82.61
2023-03-06T05:08:33.327Z,82.61
2023-03-06T05:11:02.525Z,82.90
2023-03-06T05:13:30.576Z,81.95
2023-03-06T05:16:02.898Z,82.76
2023-03-06T05:18:32.101Z,81.27
2023-03-06T05:21:00.129Z,82.42
2023-03-06T05:23:28.051Z,82.28
2023-03-06T05:25:55.848Z,82.08
2023-03-06T05:28:23.655Z,80.72
2023-03-06T05:30:51.420Z,79.29
2023-03-06T05:33:19.355Z,79.28
2023-03-06T05:35:49.812Z,78.60
2023-03-06T05:38:18.721Z,78.13
2023-03-06T05:40:46.962Z,79.81
2023-03-06T05:43:14.651Z,78.48
2023-03-06T05:45:42.386Z,78.77
2023-03-06T05:48:12.975Z,79.22
2023-03-06T05:50:41.108Z,77.95
2023-03-06T05:53:10.222Z,80.42
2023-03-06T05:55:38.038Z,80.96
2023-03-06T05:58:05.778Z,81.17
2023-03-06T06:00:33.484Z,81.32
2023-03-06T06:03:02.129Z,81.77
2023-03-06T06:05:29.904Z,80.14
2023-03-06T06:07:57.686Z,78.15
2023-03-06T06:10:26.763Z,80.44
2023-03-06T06:12:54.505Z,78.08
2023-03-06T06:15:22.231Z,77.64
2023-03-06T06:17:49.916Z,77.34
2023-03-06T06:20:18.272Z,77.25
2023-03-06T06:22:46.162Z,76.46
2023-03-06T06:25:14.573Z,75.89
2023-03-06T06:27:44.184Z,75.84
2023-03-06T06:30:13.423Z,76.70
2023-03-06T06:32:41.314Z,75.76
2023-03-06T06:35:09.660Z,74.61
2023-03-06T06:37:37.443Z,75.30
2023-03-06T06:40:05.942Z,77.37
2023-03-06T06:42:39.835Z,78.09
2023-03-06T06:45:10.989Z,80.06
2023-03-06T06:47:41.288Z,80.08
2023-03-06T06:50:11.657Z,79.65
2023-03-06T06:52:39.402Z,77.48
2023-03-06T06:55:07.971Z,78.71
2023-03-06T06:57:35.818Z,76.34
2023-03-06T07:00:03.863Z,75.75
2023-03-06T07:02:33.606Z,75.20
2023-03-06T07:05:04.658Z,73.92
2023-03-06T07:07:35.589Z,74.06
2023-03-06T07:10:05.537Z,72.99
2023-03-06T07:12:34.967Z,73.06
2023-03-06T07:15:02.762Z,73.37
2023-03-06T07:17:32.137Z,73.44
2023-03-06T07:19:59.963Z,71.71
2023-03-06T07:22:30.314Z,70.76
2023-03-06T07:25:00.006Z,70.85
2023-03-06T07:27:27.872Z,72.17
2023-03-06T07:29:55.821Z,73.58
2023-03-06T07:32:23.635Z,73.63
2023-03-06T07:34:52.802Z,74.43
2023-03-06T07:37:21.274Z,74.07
2023-03-06T07:39:49.028Z,73.77
2023-03-06T07:42:17.241Z,73.20
2023-03-06T07:44:44.936Z,70.75
2023-03-06T07:47:14.276Z,70.44
2023-03-06T07:49:42.005Z,71.10
2023-03-06T07:52:12.774Z,69.73
2023-03-06T07:54:40.479Z,68.83
2023-03-06T07:57:08.181Z,69.19
2023-03-06T07:59:35.949Z,69.68
2023-03-06T08:02:03.694Z,70.49
2023-03-06T08:04:31.392Z,70.17
2023-03-06T08:07:00.162Z,68.62
2023-03-06T08:09:29.239Z,67.22
2023-03-06T08:11:57.000Z,66.82
2023-03-06T08:14:24.797Z,67.07
2023-03-06T08:16:52.848Z,66.58
2023-03-06T08:19:20.616Z,67.75
2023-03-06T08:21:48.326Z,67.21
2023-03-06T08:24:16.761Z,67.41
2023-03-06T08:26:46.847Z,66.97
2023-03-06T08:29:15.377Z,66.89
2023-03-06T08:31:44.470Z,65.20
2023-03-06T08:34:14.584Z,64.41
2023-03-06T08:36:42.359Z,63.70
2023-03-06T08:39:10.300Z,64.99
2023-03-06T08:41:38.747Z,65.46
2023-03-06T08:44:07.998Z,66.42
2023-03-06T08:46:36.507Z,66.11
2023-03-06T08:49:05.171Z,66.87
2023-03-06T08:51:33.236Z,66.85
2023-03-06T08:54:01.187Z,66.08
2023-03-06T08:56:30.199Z,66.06
2023-03-06T08:58:59.552Z,65.81
2023-03-06T09:01:30.519Z,66.21
2023-03-06T09:04:00.422Z,65.32
2023-03-06T09:06:31.180Z,65.06
2023-03-06T09:08:59.331Z,63.94
2023-03-06T09:11:28.118Z,62.90
2023-03-06T09:13:55.974Z,63.33
2023-03-06T09:16:24.938Z,63.29
2023-03-06T09:18:54.393Z,62.97
2023-03-06T09:21:22.746Z,62.04
2023-03-06T09:23:51.213Z,62.68
2023-03-06T09:26:19.211Z,62.98
2023-03-06T09:28:47.089Z,62.89
2023-03-06T09:31:17.618Z,63.44
2023-03-06T09:33:46.439Z,63.57
2023-03-06T09:36:18.460Z,67.03
2023-03-06T09:38:48.217Z,66.72
2023-03-06T09:41:26.231Z,65.37
2023-03-06T09:43:57.458Z,66.10
2023-03-06T09:46:31.085Z,67.82
2023-03-06T09:49:13.859Z,67.51
2023-03-06T09:51:53.520Z,68.01
2023-03-06T09:54:27.697Z,68.07
2023-03-06T09:56:55.476Z,69.39
2023-03-06T09:59:25.496Z,70.05
2023-03-06T10:02:01.332Z,71.22
2023-03-06T10:04:39.097Z,71.16
2023-03-06T10:07:15.778Z,70.13
2023-03-06T10:09:47.569Z,70.90
2023-03-06T10:12:24.840Z,70.49
2023-03-06T10:15:08.013Z,71.43
2023-03-06T10:17:38.392Z,70.91
2023-03-06T10:20:24.950Z,71.51
2023-03-06T10:23:11.827Z,73.37
2023-03-06T10:25:47.494Z,74.71
2023-03-06T10:28:18.236Z,73.90
2023-03-06T10:30:53.599Z,74.86
2023-03-06T10:33:38.781Z,75.90
2023-03-06T10:36:07.255Z,75.36
2023-03-06T10:38:38.189Z,74.71
2023-03-06T10:41:09.719Z,74.11
2023-03-06T10:43:39.334Z,72.55
2023-03-06T10:46:08.628Z,72.75
2023-03-06T10:48:39.404Z,70.55
2023-03-06T10:51:18.924Z,67.29
2023-03-06T10:53:55.000Z,67.18
2023-03-06T10:56:33.831Z,64.71
2023-03-06T10:59:08.224Z,64.13
2023-03-06T11:01:36.734Z,64.99
2023-03-06T11:04:18.226Z,64.69
2023-03-06T11:06:46.029Z,65.96
2023-03-06T11:09:23.181Z,66.00
2023-03-06T11:11:51.141Z,65.74
2023-03-06T11:14:20.823Z,66.17
2023-03-06T11:16:53.148Z,64.73
2023-03-06T11:19:24.600Z,66.27
2023-03-06T11:22:03.390Z,66.68
2023-03-06T11:24:39.048Z,64.56
2023-03-06T11:27:22.182Z,64.72
2023-03-06T11:29:52.356Z,64.68
2023-03-06T11:32:23.497Z,63.92
2023-03-06T11:34:56.033Z,64.59
2023-03-06T11:37:34.772Z,63.91
2023-03-06T11:40:14.088Z,62.69
2023-03-06T11:42:46.663Z,62.68
2023-03-06T11:45:27.498Z,61.94
2023-03-06T11:48:02.667Z,62.22
2023-03-06T11:50:35.849Z,61.56
2023-03-06T11:53:06.010Z,62.55
2023-03-06T11:55:45.717Z,63.13
2023-03-06T11:58:38.116Z,63.58
2023-03-06T12:01:11.688Z,64.71
2023-03-06T12:04:14.720Z,64.89
2023-03-06T12:06:53.844Z,65.40
2023-03-06T12:09:32.037Z,65.03
2023-03-06T12:15:20.096Z,62.37
2023-03-06T12:18:02.428Z,62.32
2023-03-06T12:20:44.756Z,61.93
2023-03-06T12:23:28.263Z,60.06
2023-03-06T12:26:03.036Z,64.03
2023-03-06T12:28:50.270Z,64.10
2023-03-06T12:31:44.739Z,63.15
2023-03-06T12:34:25.542Z,61.66
2023-03-06T12:37:09.636Z,60.53
2023-03-06T12:39:51.585Z,60.65
2023-03-06T12:42:43.002Z,61.18
2023-03-06T12:45:32.724Z,60.22
2023-03-06T12:48:01.682Z,59.84
2023-03-06T12:50:32.323Z,62.63
2023-03-06T12:53:03.114Z,61.85
2023-03-06T12:55:38.704Z,60.60
2023-03-06T12:58:35.010Z,59.53
2023-03-06T13:01:10.599Z,59.91
2023-03-06T13:03:59.551Z,57.94
2023-03-06T13:06:50.214Z,58.14
2023-03-06T13:09:29.164Z,58.02
2023-03-06T13:12:24.411Z,58.26
2023-03-06T13:14:58.752Z,58.54
2023-03-06T13:17:38.463Z,58.01
2023-03-06T13:20:30.770Z,57.36
2023-03-06T13:22:58.857Z,57.21
2023-03-06T13:25:48.831Z,56.93
2023-03-06T13:28:39.936Z,57.20
2023-03-06T13:31:18.208Z,57.27
2023-03-06T13:33:59.896Z,57.00
2023-03-06T13:36:30.401Z,57.26
2023-03-06T13:39:03.111Z,56.62
2023-03-06T13:41:54.179Z,56.68
2023-03-06T13:44:43.409Z,56.21
2023-03-06T13:48:10.631Z,56.72
2023-03-06T13:50:42.205Z,58.02
2023-03-06T13:53:54.678Z,56.40
2023-03-06T13:56:47.975Z,55.08
2023-03-06T13:59:38.535Z,56.35
2023-03-06T14:02:31.887Z,54.74
2023-03-06T14:05:00.876Z,54.00
2023-03-06T14:07:32.074Z,55.17
2023-03-06T14:10:04.050Z,54.54
2023-03-06T14:12:35.173Z,54.14
2023-03-06T14:15:07.087Z,54.37
2023-03-06T14:17:39.127Z,54.20
2023-03-06T14:20:15.698Z,53.93
2023-03-06T14:22:45.028Z,54.48
2023-03-06T14:25:18.320Z,55.00
2023-03-06T14:27:49.869Z,56.33
2023-03-06T14:30:22.615Z,54.88
2023-03-06T14:32:55.625Z,53.91
2023-03-06T14:35:26.947Z,53.30
2023-03-06T14:38:00.121Z,53.33
2023-03-06T14:40:32.606Z,53.36
2023-03-06T14:43:18.732Z,53.12
2023-03-06T14:45:52.285Z,52.49
2023-03-06T14:48:20.621Z,51.83
2023-03-06T14:50:50.553Z,53.13
2023-03-06T14:53:23.423Z,52.30
2023-03-06T14:55:54.332Z,54.06
2023-03-06T14:58:29.745Z,53.54
2023-03-06T15:01:01.291Z,53.07
2023-03-06T15:03:40.490Z,52.48
2023-03-06T15:06:09.811Z,52.75
2023-03-06T15:08:41.162Z,53.00
2023-03-06T15:11:09.059Z,53.16
2023-03-06T15:13:36.946Z,53.51
2023-03-06T15:16:07.701Z,53.21
2023-03-06T15:18:39.148Z,53.88
2023-03-06T15:21:09.675Z,54.87
2023-03-06T15:23:40.444Z,54.81
2023-03-06T15:26:29.570Z,54.95
2023-03-06T15:29:09.479Z,55.47
2023-03-06T15:31:39.079Z,55.95
2023-03-06T15:34:23.410Z,56.43
2023-03-06T15:36:54.590Z,56.68
2023-03-06T15:40:01.955Z,55.93
2023-03-06T15:42:29.985Z,56.23
2023-03-06T15:45:02.992Z,57.05
2023-03-06T15:47:30.702Z,57.48
2023-03-06T15:49:58.514Z,56.58
2023-03-06T15:52:26.255Z,55.75
2023-03-06T15:54:55.378Z,55.65
2023-03-06T15:57:25.944Z,56.26
2023-03-06T15:59:55.955Z,56.32
2023-03-06T16:02:24.677Z,55.83
2023-03-06T16:04:53.172Z,56.66
2023-03-06T16:07:21.599Z,55.97
2023-03-06T16:09:49.462Z,56.01
2023-03-06T16:12:20.233Z,55.90
2023-03-06T16:14:49.261Z,55.91
2023-03-06T16:17:17.184Z,56.80
2023-03-06T16:19:45.273Z,57.41
2023-03-06T16:22:13.694Z,57.45
2023-03-06T16:24:41.682Z,57.46
2023-03-06T16:27:17.947Z,56.27
2023-03-06T16:29:47.071Z,56.06
2023-03-06T16:32:14.973Z,57.54
2023-03-06T16:34:42.787Z,58.21
2023-03-06T16:37:13.841Z,59.21
2023-03-06T16:39:41.828Z,58.45
2023-03-06T16:42:09.703Z,59.81
2023-03-06T16:44:37.538Z,59.76
2023-03-06T16:47:07.015Z,59.59
2023-03-06T16:49:34.761Z,59.84
2023-03-06T16:52:04.483Z,59.58
2023-03-06T16:54:32.219Z,60.47
2023-03-06T16:56:59.932Z,60.87
2023-03-06T16:59:27.698Z,60.55
2023-03-06T17:01:55.547Z,59.60
2023-03-06T17:04:24.616Z,61.01
2023-03-06T17:06:52.879Z,60.27
2023-03-06T17:09:20.635Z,60.86
2023-03-06T17:11:48.374Z,61.36
2023-03-06T17:14:16.227Z,61.51
2023-03-06T17:16:44.243Z,61.74
2023-03-06T17:19:14.375Z,62.65
2023-03-06T17:21:44.300Z,62.93
2023-03-06T17:24:12.282Z,62.76
2023-03-06T17:26:40.128Z,63.52
2023-03-06T17:29:09.301Z,63.74
2023-03-06T17:31:37.023Z,64.74
2023-03-06T17:34:05.004Z,64.04
2023-03-06T17:36:33.548Z,64.16
2023-03-06T17:39:04.274Z,63.98
2023-03-06T17:41:32.913Z,63.18
2023-03-06T17:44:01.720Z,63.47
2023-03-06T17:46:32.064Z,64.23
2023-03-06T17:49:00.643Z,63.62
2023-03-06T17:51:28.650Z,63.77
2023-03-06T17:53:57.358Z,64.64
2023-03-06T17:56:27.242Z,64.77
2023-03-06T17:58:55.390Z,65.03
2023-03-06T18:01:27.345Z,65.62
2023-03-06T18:03:55.544Z,63.48
2023-03-06T18:06:25.089Z,64.91
2023-03-06T18:08:53.144Z,64.09
2023-03-06T18:11:21.499Z,66.20
2023-03-06T18:13:50.670Z,65.70
2023-03-06T18:16:20.605Z,65.33
2023-03-06T18:18:48.629Z,65.33
2023-03-06T18:21:17.100Z,65.46
2023-03-06T18:23:45.123Z,65.63
2023-03-06T18:26:15.223Z,65.45
2023-03-06T18:28:44.963Z,65.65
2023-03-06T18:31:18.234Z,64.82
2023-03-06T18:33:48.298Z,65.08
2023-03-06T18:36:16.708Z,65.25
2023-03-06T18:38:45.654Z,65.45
2023-03-06T18:41:15.229Z,65.71
2023-03-06T18:43:43.203Z,67.30
2023-03-06T18:46:11.729Z,66.47
2023-03-06T18:48:40.923Z,67.82
2023-03-06T18:51:10.513Z,66.69
2023-03-06T18:53:40.062Z,67.93
2023-03-06T18:56:08.681Z,67.78
2023-03-06T18:58:36.494Z,68.24
2023-03-06T19:01:07.237Z,67.51
2023-03-06T19:03:35.439Z,66.63
2023-03-06T19:06:08.072Z,66.25
2023-03-06T19:08:36.714Z,65.61
2023-03-06T19:11:08.194Z,66.29
2023-03-06T19:13:36.079Z,66.56
2023-03-06T19:16:04.152Z,66.36
2023-03-06T19:18:32.021Z,66.11
2023-03-06T19:21:10.259Z,65.49
2023-03-06T19:23:38.070Z,66.47
2023-03-06T19:26:07.409Z,66.41
2023-03-06T19:28:36.128Z,66.61
2023-03-06T19:31:09.583Z,65.37
2023-03-06T19:33:37.856Z,66.70
2023-03-06T19:36:06.937Z,68.73
2023-03-06T19:38:36.449Z,67.13
2023-03-06T19:41:04.287Z,70.18
2023-03-06T19:43:32.196Z,69.56
2023-03-06T19:46:00.616Z,71.40
2023-03-06T19:48:28.507Z,69.73
2023-03-06T19:50:56.223Z,69.66
2023-03-06T19:53:23.993Z,72.00
2023-03-06T19:55:53.067Z,70.65
2023-03-06T19:58:20.759Z,70.90
2023-03-06T20:00:48.450Z,70.34
2023-03-06T20:03:16.152Z,67.80
2023-03-06T20:05:47.391Z,68.61
2023-03-06T20:08:15.179Z,68.59
2023-03-06T20:10:42.970Z,67.79
2023-03-06T20:13:12.269Z,67.35
2023-03-06T20:15:40.239Z,69.06
2023-03-06T20:18:08.287Z,67.56
2023-03-06T20:20:37.621Z,68.81
2023-03-06T20:23:05.629Z,67.53
2023-03-06T20:25:36.265Z,68.42
2023-03-06T20:28:04.264Z,69.10
2023-03-06T20:30:38.079Z,69.57
2023-03-06T20:33:06.343Z,69.12
2023-03-06T20:35:34.146Z,68.24
2023-03-06T20:38:01.899Z,67.15
2023-03-06T20:40:29.763Z,68.07
2023-03-06T20:42:57.526Z,69.13
2023-03-06T20:45:25.311Z,67.39
2023-03-06T20:47:56.200Z,66.20
2023-03-06T20:50:25.568Z,65.52
2023-03-06T20:52:54.863Z,65.65
2023-03-06T20:55:22.800Z,65.54
2023-03-06T20:57:50.815Z,64.53
2023-03-06T21:00:20.916Z,65.56
2023-03-06T21:02:48.744Z,66.70
2023-03-06T21:05:18.001Z,67.75
2023-03-06T21:07:45.691Z,68.60
2023-03-06T21:10:14.524Z,68.37
2023-03-06T21:12:42.375Z,68.34
2023-03-06T21:15:10.640Z,68.55
2023-03-06T21:17:38.821Z,68.57
2023-03-06T21:20:07.464Z,68.01
2023-03-06T21:22:36.541Z,68.67
2023-03-06T21:25:04.495Z,67.31
2023-03-06T21:27:32.276Z,67.34
2023-03-06T21:30:00.012Z,69.10
2023-03-06T21:32:27.920Z,68.96
2023-03-06T21:34:55.685Z,67.81
2023-03-06T21:37:23.504Z,67.02
2023-03-06T21:39:52.826Z,65.35
2023-03-06T21:42:20.585Z,65.23
2023-03-06T21:44:48.407Z,65.07
2023-03-06T21:47:16.108Z,67.52
2023-03-06T21:49:43.823Z,67.05
2023-03-06T21:52:11.563Z,68.80
2023-03-06T21:54:39.302Z,67.80
2023-03-06T21:57:08.478Z,68.78
2023-03-06T21:59:37.477Z,68.53
2023-03-06T22:02:05.490Z,68.49
2023-03-06T22:04:33.252Z,68.68
2023-03-06T22:07:01.120Z,68.78
2023-03-06T22:09:28.834Z,69.44
2023-03-06T22:11:57.297Z,68.36
2023-03-06T22:14:26.536Z,69.19
2023-03-06T22:16:56.680Z,67.39
2023-03-06T22:19:24.656Z,66.93
2023-03-06T22:21:52.464Z,67.97
2023-03-06T22:24:20.210Z,67.23
2023-03-06T22:26:48.383Z,68.91
2023-03-06T22:29:16.195Z,66.92
2023-03-06T22:31:45.391Z,66.53
2023-03-06T22:34:13.172Z,67.24
2023-03-06T22:36:40.945Z,67.88
2023-03-06T22:39:08.772Z,68.49
2023-03-06T22:41:36.497Z,68.58
2023-03-06T22:44:04.238Z,68.92
2023-03-06T22:46:33.369Z,69.71
2023-03-06T22:49:03.202Z,71.29
2023-03-06T22:51:31.065Z,71.10
2023-03-06T22:53:59.046Z,72.78
2023-03-06T22:56:26.891Z,72.44
2023-03-06T22:58:54.620Z,71.76
2023-03-06T23:01:25.144Z,71.24
2023-03-06T23:03:55.023Z,70.94
2023-03-06T23:06:25.890Z,71.65
2023-03-06T23:08:55.872Z,73.35
2023-03-06T23:11:24.362Z,71.93
2023-03-06T23:13:52.483Z,72.77
2023-03-06T23:16:20.264Z,72.02
2023-03-06T23:18:48.376Z,71.21
2023-03-06T23:21:18.298Z,72.67
2023-03-06T23:23:50.705Z,71.84
2023-03-06T23:26:20.601Z,72.69
2023-03-06T23:28:49.473Z,72.50
2023-03-06T23:31:19.329Z,72.77
2023-03-06T23:33:47.866Z,74.45
2023-03-06T23:36:17.731Z,74.45
2023-03-06T23:38:46.445Z,75.20
2023-03-06T23:41:18.054Z,74.10
2023-03-06T23:43:46.562Z,73.17
2023-03-06T23:46:14.990Z,74.32
2023-03-06T23:48:43.836Z,73.13
2023-03-06T23:51:15.212Z,73.43
2023-03-06T23:53:43.086Z,72.61
2023-03-06T23:56:11.686Z,71.42
2023-03-06T23:58:41.232Z,73.36
